Time;durP1;ratioP1;P1;durP2;ratioP2;P2;SDS_P1;SDS_P2;PMS_P1;PMS_P2;Temp;Humidity;BMP_temperature;BMP_pressure;BME280_temperature;BME280_humidity;BME280_pressure;Samples;Min_cycle;Max_cycle;Signal;HPM_P1;HPM_P2
2022/03/22 00:00:12;;;;;;;16.38;7.90;;;5.60;60.90;;;;;;5076219;28;20031;-77
2022/03/22 00:02:38;;;;;;;17.60;6.75;;;5.60;61.00;;;;;;5094223;28;20144;-75
2022/03/22 00:05:04;;;;;;;20.90;8.43;;;5.60;60.90;;;;;;5094220;28;20129;-77
2022/03/22 00:07:31;;;;;;;14.70;7.28;;;5.60;60.90;;;;;;5093962;28;20020;-77
2022/03/22 00:09:57;;;;;;;15.05;7.55;;;5.60;60.80;;;;;;5094289;28;20049;-78
2022/03/22 00:12:23;;;;;;;21.35;8.45;;;5.60;60.80;;;;;;5094249;28;20111;-78
2022/03/22 00:14:49;;;;;;;17.10;7.32;;;5.60;60.90;;;;;;5093918;28;20059;-80
2022/03/22 00:17:14;;;;;;;18.10;8.32;;;5.60;61.10;;;;;;5095808;28;20032;-76
2022/03/22 00:19:40;;;;;;;18.60;8.02;;;5.50;61.10;;;;;;5095649;28;20499;-77
2022/03/22 00:22:06;;;;;;;19.88;9.18;;;5.50;61.30;;;;;;5094385;28;20031;-77
2022/03/22 00:24:32;;;;;;;19.13;8.90;;;5.50;61.60;;;;;;5094063;28;20032;-77
2022/03/22 00:26:57;;;;;;;19.63;8.00;;;5.40;61.70;;;;;;5093850;28;20020;-76
2022/03/22 00:29:23;;;;;;;16.60;8.65;;;5.40;61.80;;;;;;5093853;28;20027;-76
2022/03/22 00:31:49;;;;;;;18.55;8.45;;;5.40;62.00;;;;;;5093559;28;20039;-78
2022/03/22 00:34:15;;;;;;;18.38;8.63;;;5.30;62.20;;;;;;5075628;28;20135;-77
2022/03/22 00:36:41;;;;;;;18.63;9.07;;;5.30;62.30;;;;;;5075269;28;20481;-78
2022/03/22 00:39:07;;;;;;;18.05;8.55;;;5.40;62.50;;;;;;5093465;28;20035;-77
2022/03/22 00:41:33;;;;;;;21.15;9.35;;;5.40;62.70;;;;;;5093689;28;20559;-79
2022/03/22 00:43:59;;;;;;;14.63;8.48;;;5.30;62.70;;;;;;5093531;28;20060;-76
2022/03/22 00:46:25;;;;;;;16.50;9.18;;;5.30;62.60;;;;;;5093523;28;20027;-77
2022/03/22 00:48:51;;;;;;;16.30;9.07;;;5.30;62.60;;;;;;5093440;28;20073;-77
2022/03/22 00:51:17;;;;;;;19.85;8.15;;;5.30;62.60;;;;;;5093575;28;20066;-77
2022/03/22 00:53:45;;;;;;;22.95;9.35;;;5.30;62.60;;;;;;5093478;28;20078;-77
2022/03/22 00:56:11;;;;;;;24.48;9.73;;;5.30;62.60;;;;;;5093301;28;20389;-76
2022/03/22 00:58:36;;;;;;;18.38;9.25;;;5.40;62.60;;;;;;5093186;28;20032;-77
2022/03/22 01:01:02;;;;;;;25.42;10.73;;;5.30;62.60;;;;;;5093038;28;20118;-78
2022/03/22 01:03:28;;;;;;;24.27;9.73;;;5.30;62.70;;;;;;5093198;28;20028;-78
2022/03/22 01:05:55;;;;;;;18.02;9.40;;;5.30;62.80;;;;;;5092977;28;20028;-77
2022/03/22 01:08:23;;;;;;;18.45;9.40;;;5.30;62.80;;;;;;5092575;28;20024;-77
2022/03/22 01:10:52;;;;;;;;;;;5.20;62.80;;;;;;5093669;28;20500;-78
2022/03/22 01:13:18;;;;;;;17.15;9.23;;;5.20;62.50;;;;;;5074836;28;19904;-77
2022/03/22 01:15:44;;;;;;;21.65;7.90;;;5.20;62.80;;;;;;5092877;28;20485;-78
2022/03/22 01:18:12;;;;;;;12.95;8.30;;;5.20;62.80;;;;;;5092558;28;20056;-78
2022/03/22 01:20:39;;;;;;;;;;;5.10;62.70;;;;;;5093499;28;20377;-79
2022/03/22 01:23:10;;;;;;;17.92;8.40;;;5.20;62.40;;;;;;5074780;28;19915;-77
2022/03/22 01:25:37;;;;;;;17.63;7.78;;;5.10;62.50;;;;;;5093338;28;20373;-79
2022/03/22 01:28:04;;;;;;;;;;;5.10;62.70;;;;;;5075359;28;20020;-78
2022/03/22 01:30:30;;;;;;;18.37;8.67;;;5.00;62.60;;;;;;5092588;28;19904;-77
2022/03/22 01:32:57;;;;;;;15.25;7.70;;;5.00;62.90;;;;;;5092380;28;20296;-78
2022/03/22 01:35:25;;;;;;;16.02;7.88;;;5.00;62.90;;;;;;5092574;28;20039;-76
2022/03/22 01:37:52;;;;;;;17.33;8.18;;;5.00;62.80;;;;;;5070764;28;20036;-78
2022/03/22 01:40:21;;;;;;;20.08;6.95;;;5.00;62.70;;;;;;5054290;28;20023;-78
2022/03/22 01:42:47;;;;;;;10.98;8.18;;;5.00;62.70;;;;;;5070804;28;20086;-77
2022/03/22 01:45:15;;;;;;;12.63;6.82;;;5.00;62.70;;;;;;5072946;28;20021;-76
2022/03/22 01:47:42;;;;;;;17.02;7.90;;;5.00;62.50;;;;;;5073860;28;20040;-76
2022/03/22 01:50:11;;;;;;;19.35;6.97;;;5.00;62.50;;;;;;5073399;28;20021;-79
2022/03/22 01:52:43;;;;;;;14.18;8.07;;;5.00;62.50;;;;;;5073488;28;20020;-77
2022/03/22 01:55:11;;;;;;;16.17;7.97;;;4.90;62.60;;;;;;5072898;28;20032;-78
2022/03/22 01:57:37;;;;;;;18.63;7.55;;;4.90;62.70;;;;;;5072516;28;20020;-77
2022/03/22 02:00:11;;;;;;;16.65;7.00;;;4.80;62.60;;;;;;5089744;28;20023;-78
2022/03/22 02:08:10;;;;;;;15.05;7.70;;;4.70;62.80;;;;;;5092793;28;20070;-77
2022/03/22 02:10:37;;;;;;;16.48;7.85;;;4.60;62.80;;;;;;5092013;28;20043;-77
2022/03/22 02:13:04;;;;;;;17.77;8.30;;;4.60;62.90;;;;;;5092334;28;20572;-78
2022/03/22 02:15:29;;;;;;;18.48;7.25;;;4.50;62.90;;;;;;5092395;28;20055;-77
2022/03/22 02:17:56;;;;;;;13.75;7.32;;;4.50;63.10;;;;;;5092734;28;20040;-78
2022/03/22 02:20:21;;;;;;;12.75;6.43;;;4.50;63.20;;;;;;5092540;28;20020;-79
2022/03/22 02:22:54;;;;;;;16.80;6.90;;;4.50;63.30;;;;;;5091939;28;20050;-77
2022/03/22 02:25:21;;;;;;;14.18;6.85;;;4.50;63.30;;;;;;5092051;28;20020;-76
2022/03/22 02:27:52;;;;;;;11.57;6.03;;;4.50;63.20;;;;;;5091877;28;20027;-80
2022/03/22 02:30:18;;;;;;;16.42;6.25;;;4.40;63.20;;;;;;5093932;28;20027;-77
2022/03/22 02:32:55;;;;;;;11.25;6.10;;;4.40;63.10;;;;;;5077864;28;20119;-78
2022/03/22 02:35:23;;;;;;;15.40;6.13;;;4.40;63.20;;;;;;5096084;28;20175;-78
2022/03/22 02:37:50;;;;;;;10.60;5.63;;;4.30;63.20;;;;;;5095810;28;20393;-77
2022/03/22 02:40:16;;;;;;;10.13;6.40;;;4.30;63.30;;;;;;5095937;28;20095;-78
2022/03/22 02:42:44;;;;;;;16.55;6.93;;;4.30;63.40;;;;;;5077605;28;20024;-80
2022/03/22 02:45:11;;;;;;;18.73;6.53;;;4.30;63.60;;;;;;5095844;28;20073;-79
2022/03/22 02:47:41;;;;;;;16.50;6.68;;;4.20;63.70;;;;;;5077936;28;20507;-78
2022/03/22 02:50:08;;;;;;;16.02;7.65;;;4.20;63.70;;;;;;5095479;28;20020;-78
2022/03/22 02:52:34;;;;;;;12.85;7.05;;;4.10;63.80;;;;;;5095984;28;20024;-77
2022/03/22 02:55:00;;;;;;;11.90;6.47;;;4.10;63.90;;;;;;5095800;28;20077;-77
2022/03/22 02:57:26;;;;;;;14.07;6.22;;;4.10;63.90;;;;;;5095647;28;20031;-77
2022/03/22 02:59:52;;;;;;;16.25;8.38;;;4.00;63.90;;;;;;5095732;28;20407;-77
2022/03/22 03:02:17;;;;;;;21.40;8.07;;;4.00;63.90;;;;;;5095667;28;20024;-78
2022/03/22 03:04:43;;;;;;;14.00;6.38;;;4.00;64.00;;;;;;5095567;28;20051;-78
2022/03/22 03:07:09;;;;;;;15.27;6.22;;;3.90;64.00;;;;;;5095362;28;20035;-78
2022/03/22 03:09:35;;;;;;;12.68;5.85;;;3.90;63.90;;;;;;5095530;28;20056;-75
2022/03/22 03:12:04;;;;;;;11.68;5.30;;;3.90;63.90;;;;;;5095423;28;20520;-78
2022/03/22 03:14:38;;;;;;;17.80;6.10;;;4.00;63.80;;;;;;5076506;28;20096;-78
2022/03/22 03:17:10;;;;;;;12.27;6.07;;;4.00;63.80;;;;;;5095587;28;20024;-78
2022/03/22 03:19:36;;;;;;;9.85;5.88;;;4.00;63.70;;;;;;5095683;28;20039;-77
2022/03/22 03:22:03;;;;;;;13.18;5.85;;;4.00;63.40;;;;;;5095432;28;20055;-77
2022/03/22 03:24:30;;;;;;;12.83;5.37;;;4.00;63.20;;;;;;5096072;28;20035;-77
2022/03/22 03:26:56;;;;;;;8.75;5.70;;;4.10;63.10;;;;;;5094989;28;20048;-78
2022/03/22 03:29:22;;;;;;;9.48;5.45;;;4.00;63.00;;;;;;5095176;28;20032;-78
2022/03/22 03:31:48;;;;;;;10.85;5.47;;;4.00;63.00;;;;;;5094721;28;20023;-77
2022/03/22 03:34:15;;;;;;;16.15;6.13;;;4.00;62.90;;;;;;5094943;28;20028;-77
2022/03/22 03:36:41;;;;;;;11.45;5.25;;;4.00;62.90;;;;;;5076595;28;20028;-78
2022/03/22 03:39:07;;;;;;;13.38;6.32;;;4.00;63.00;;;;;;5094947;28;20073;-78
2022/03/22 03:47:04;;;;;;;8.73;5.15;;;3.90;62.90;;;;;;5094732;28;20023;-79
2022/03/22 03:49:34;;;;;;;11.20;5.72;;;4.00;62.80;;;;;;5094729;28;20069;-78
2022/03/22 03:52:01;;;;;;;11.10;5.97;;;4.00;62.70;;;;;;5094734;28;20028;-79
2022/03/22 03:54:27;;;;;;;12.05;6.22;;;4.00;62.70;;;;;;5094796;28;20012;-79
2022/03/22 03:56:53;;;;;;;8.82;5.32;;;4.00;62.70;;;;;;5077188;28;20950;-78
2022/03/22 03:59:19;;;;;;;14.63;5.40;;;4.00;62.70;;;;;;5094361;28;20127;-78
2022/03/22 04:01:44;;;;;;;10.35;5.35;;;4.00;62.80;;;;;;5094175;28;20052;-77
2022/03/22 04:04:10;;;;;;;9.45;5.22;;;4.00;62.90;;;;;;5094653;28;20077;-76
2022/03/22 04:06:36;;;;;;;9.85;4.30;;;4.00;62.90;;;;;;5094919;28;20073;-78
2022/03/22 04:09:02;;;;;;;10.60;5.43;;;4.00;63.00;;;;;;5076365;28;20024;-78
2022/03/22 04:11:28;;;;;;;10.82;5.47;;;4.10;63.10;;;;;;5093952;28;20472;-79
2022/03/22 04:13:53;;;;;;;11.35;5.68;;;4.10;63.10;;;;;;5075996;28;20073;-79
2022/03/22 04:16:19;;;;;;;10.63;6.45;;;4.30;63.00;;;;;;5094197;28;20547;-77
2022/03/22 04:18:45;;;;;;;13.98;5.88;;;4.60;62.60;;;;;;5093936;28;20040;-80
2022/03/22 04:21:11;;;;;;;17.15;6.82;;;4.90;62.30;;;;;;5094055;28;20024;-79
2022/03/22 04:23:37;;;;;;;13.98;5.97;;;5.20;60.70;;;;;;5093765;28;20066;-78
2022/03/22 04:26:03;;;;;;;16.73;6.60;;;5.50;59.60;;;;;;5093783;28;20031;-77
2022/03/22 04:33:58;;;;;;;13.20;6.32;;;6.00;57.40;;;;;;5093643;28;20058;-76
2022/03/22 04:36:24;;;;;;;9.20;5.63;;;5.70;57.30;;;;;;5093555;28;20499;-77
2022/03/22 04:38:50;;;;;;;14.63;6.32;;;5.40;57.80;;;;;;5093562;28;20040;-78
2022/03/22 04:41:16;;;;;;;13.63;6.10;;;5.10;58.40;;;;;;5075425;28;20020;-79
2022/03/22 04:43:42;;;;;;;10.30;4.82;;;5.00;58.90;;;;;;5093400;28;20053;-78
2022/03/22 04:46:08;;;;;;;12.40;7.07;;;4.80;59.30;;;;;;5074385;28;20489;-77
2022/03/22 04:48:34;;;;;;;12.95;6.32;;;4.60;59.80;;;;;;5073280;28;20092;-78
2022/03/22 04:56:43;;;;;;;12.65;5.80;;;4.40;60.70;;;;;;5098073;28;20069;-77
2022/03/22 04:59:09;;;;;;;9.00;4.88;;;4.40;61.10;;;;;;5096784;28;20412;-78
2022/03/22 05:01:35;;;;;;;12.38;5.78;;;4.30;61.40;;;;;;5093816;28;20028;-78
2022/03/22 05:04:01;;;;;;;16.48;5.82;;;4.30;61.60;;;;;;5073759;28;20418;-77
2022/03/22 05:06:35;;;;;;;12.45;5.20;;;4.30;61.60;;;;;;5091952;28;20406;-78
2022/03/22 05:09:02;;;;;;;14.23;5.93;;;4.30;61.70;;;;;;5092964;28;20031;-79
2022/03/22 05:11:28;;;;;;;12.98;6.45;;;4.30;61.80;;;;;;5093068;28;20028;-80
2022/03/22 05:13:54;;;;;;;17.92;6.28;;;4.40;61.90;;;;;;5092784;28;20028;-77
2022/03/22 05:16:21;;;;;;;16.38;7.00;;;4.40;62.10;;;;;;5074504;28;20119;-77
2022/03/22 05:18:47;;;;;;;17.48;7.05;;;4.40;62.00;;;;;;5091766;28;20047;-78
2022/03/22 05:21:13;;;;;;;12.20;6.72;;;4.50;62.00;;;;;;5091453;28;20036;-77
2022/03/22 05:23:40;;;;;;;12.23;5.90;;;4.50;62.00;;;;;;5092596;28;20024;-78
2022/03/22 05:26:05;;;;;;;12.43;6.68;;;4.50;61.80;;;;;;5092371;28;20043;-79
2022/03/22 05:28:33;;;;;;;15.65;5.97;;;4.60;62.10;;;;;;5092460;28;20028;-77
2022/03/22 05:30:58;;;;;;;11.32;6.60;;;4.70;61.70;;;;;;5092532;28;20033;-78
2022/03/22 05:33:24;;;;;;;13.52;6.13;;;4.70;61.70;;;;;;5092544;28;20511;-77
2022/03/22 05:35:50;;;;;;;12.90;6.53;;;4.70;61.60;;;;;;5094941;28;20099;-79
2022/03/22 05:38:16;;;;;;;16.88;6.65;;;4.80;61.60;;;;;;5091868;28;20090;-78
2022/03/22 05:40:41;;;;;;;14.73;6.35;;;4.90;61.50;;;;;;5092382;28;20028;-79
2022/03/22 05:43:07;;;;;;;12.55;6.55;;;5.00;61.30;;;;;;5092285;28;20047;-78
2022/03/22 05:45:34;;;;;;;14.98;6.72;;;5.00;61.20;;;;;;5092055;28;20020;-79
2022/03/22 05:48:00;;;;;;;16.90;6.60;;;5.10;61.10;;;;;;5092102;28;20028;-78
2022/03/22 05:50:30;;;;;;;13.55;6.07;;;5.20;61.10;;;;;;5074016;28;20024;-78
2022/03/22 05:52:56;;;;;;;14.32;5.88;;;5.20;60.90;;;;;;5072769;28;20034;-78
2022/03/22 05:55:21;;;;;;;14.18;5.35;;;5.30;60.70;;;;;;5091861;28;20039;-80
2022/03/22 05:57:47;;;;;;;11.23;6.07;;;5.30;60.60;;;;;;5092090;28;20084;-79
2022/03/22 06:00:14;;;;;;;12.15;5.85;;;5.40;60.70;;;;;;5091969;28;20031;-79
2022/03/22 06:02:41;;;;;;;13.52;6.55;;;5.40;60.60;;;;;;5074661;28;20024;-79
2022/03/22 06:05:08;;;;;;;11.15;5.95;;;5.50;60.50;;;;;;5091996;28;20028;-79
2022/03/22 06:07:35;;;;;;;13.93;6.18;;;5.50;60.10;;;;;;5092213;28;20131;-78
2022/03/22 06:10:01;;;;;;;12.60;5.23;;;5.60;59.90;;;;;;5090900;28;20158;-82
2022/03/22 06:12:34;;;;;;;16.88;5.57;;;5.70;59.80;;;;;;5091675;28;20059;-79
2022/03/22 06:15:15;;;;;;;8.85;7.10;;;5.80;59.70;;;;;;5074150;28;20480;-79
2022/03/22 06:17:58;;;;;;;10.23;5.45;;;5.80;59.50;;;;;;5074145;28;20032;-79
2022/03/22 06:20:28;;;;;;;15.80;6.70;;;6.00;59.30;;;;;;5091821;28;20119;-78
2022/03/22 06:22:55;;;;;;;11.90;5.97;;;6.00;59.20;;;;;;5091246;28;20020;-79
2022/03/22 06:25:21;;;;;;;9.25;5.18;;;6.00;59.00;;;;;;5088778;28;20028;-79
2022/03/22 06:27:50;;;;;;;13.50;6.15;;;6.20;58.80;;;;;;5088213;28;20027;-81
2022/03/22 06:30:16;;;;;;;16.67;5.78;;;6.20;58.50;;;;;;5093638;28;20028;-80
2022/03/22 06:32:45;;;;;;;14.05;5.85;;;6.30;58.40;;;;;;5073698;28;20109;-81
2022/03/22 06:35:12;;;;;;;18.80;6.18;;;6.40;58.30;;;;;;5074817;28;20538;-84
2022/03/22 06:37:39;;;;;;;10.33;5.67;;;6.50;58.10;;;;;;5091892;28;20381;-79
2022/03/22 06:40:10;;;;;;;8.77;5.20;;;6.50;57.90;;;;;;5092243;28;20047;-81
2022/03/22 06:42:37;;;;;;;13.88;5.78;;;6.60;57.40;;;;;;5090241;28;20385;-77
2022/03/22 06:45:05;;;;;;;16.17;5.90;;;6.70;57.20;;;;;;5092026;28;20496;-78
2022/03/22 06:47:32;;;;;;;15.50;6.38;;;6.80;57.10;;;;;;5091816;28;20024;-78
2022/03/22 06:49:59;;;;;;;17.50;5.82;;;6.90;56.90;;;;;;5091519;28;20036;-76
2022/03/22 06:52:25;;;;;;;16.17;5.82;;;7.00;56.60;;;;;;5091490;28;20145;-77
2022/03/22 06:54:51;;;;;;;17.38;7.28;;;7.10;56.30;;;;;;5091871;28;20034;-77
2022/03/22 06:57:17;;;;;;;14.18;5.90;;;7.20;56.00;;;;;;5090426;28;20099;-79
2022/03/22 06:59:43;;;;;;;16.13;5.63;;;7.30;55.60;;;;;;5073492;28;20036;-76
2022/03/22 07:02:09;;;;;;;10.45;4.78;;;7.50;55.50;;;;;;5091460;28;20024;-78
2022/03/22 07:04:35;;;;;;;11.18;5.10;;;7.60;54.50;;;;;;5090762;28;20028;-77
2022/03/22 07:07:02;;;;;;;10.10;5.32;;;7.60;54.00;;;;;;5074419;28;20067;-78
2022/03/22 07:09:27;;;;;;;10.00;5.05;;;7.70;53.80;;;;;;5071129;28;20021;-77
2022/03/22 07:11:55;;;;;;;17.48;6.50;;;7.80;53.60;;;;;;5070994;28;20218;-77
2022/03/22 07:14:23;;;;;;;15.95;5.15;;;7.80;53.60;;;;;;5071003;28;20074;-78
2022/03/22 07:16:49;;;;;;;12.80;5.30;;;8.00;52.80;;;;;;5072282;28;20056;-76
2022/03/22 07:19:15;;;;;;;10.68;4.97;;;8.10;52.30;;;;;;5074733;28;20130;-77
2022/03/22 07:21:43;;;;;;;11.60;5.20;;;8.20;51.20;;;;;;5074351;28;20028;-77
2022/03/22 07:24:10;;;;;;;12.48;4.47;;;8.40;50.60;;;;;;5057166;28;20538;-78
2022/03/22 07:26:35;;;;;;;11.55;4.45;;;8.70;48.90;;;;;;5075099;28;20048;-78
2022/03/22 07:29:01;;;;;;;7.47;3.60;;;9.50;46.50;;;;;;5075318;28;20108;-77
2022/03/22 07:31:27;;;;;;;10.32;4.20;;;11.10;44.40;;;;;;5075119;28;20021;-77
2022/03/22 07:33:53;;;;;;;10.23;3.72;;;13.00;40.90;;;;;;5074578;28;20021;-79
2022/03/22 07:36:19;;;;;;;5.22;3.28;;;14.60;37.70;;;;;;5074430;28;20035;-78
2022/03/22 07:38:45;;;;;;;8.90;3.70;;;15.70;35.20;;;;;;5087592;28;20047;-79
2022/03/22 07:41:12;;;;;;;6.97;3.30;;;16.90;33.50;;;;;;5094703;28;20473;-79
2022/03/22 07:43:38;;;;;;;7.15;3.80;;;17.60;32.00;;;;;;5076420;28;20063;-79
2022/03/22 07:46:04;;;;;;;12.07;4.00;;;18.30;30.90;;;;;;5094677;28;20388;-77
2022/03/22 07:48:30;;;;;;;11.68;4.03;;;18.80;30.40;;;;;;5094436;28;20474;-78
2022/03/22 07:53:43;;;;;;;16.20;4.55;;;20.10;28.80;;;;;;5084184;28;20039;-80
2022/03/22 07:56:09;;;;;;;8.70;4.03;;;20.30;28.50;;;;;;5073805;28;20031;-78
2022/03/22 07:58:35;;;;;;;12.97;5.77;;;20.10;28.40;;;;;;5056148;28;20126;-79
2022/03/22 08:01:01;;;;;;;10.68;4.22;;;20.10;28.50;;;;;;5073980;28;20104;-79
2022/03/22 08:03:27;;;;;;;12.40;4.20;;;20.50;28.30;;;;;;5055749;28;20115;-78
2022/03/22 08:05:53;;;;;;;13.05;6.70;;;21.20;28.10;;;;;;5087507;28;20030;-77
2022/03/22 08:08:20;;;;;;;13.48;5.90;;;22.20;27.60;;;;;;5074976;28;20039;-78
2022/03/22 08:10:46;;;;;;;13.48;5.13;;;22.50;27.10;;;;;;5075716;28;20113;-79
2022/03/22 08:13:13;;;;;;;7.70;4.67;;;22.80;26.70;;;;;;5094025;28;20034;-80
2022/03/22 08:15:39;;;;;;;14.27;5.18;;;23.40;26.50;;;;;;5094188;28;20052;-79
2022/03/22 08:18:06;;;;;;;10.10;4.23;;;23.60;26.00;;;;;;5094015;28;20051;-80
2022/03/22 08:20:32;;;;;;;10.80;3.85;;;24.00;25.60;;;;;;5093708;28;20024;-80
2022/03/22 08:23:02;;;;;;;9.05;4.55;;;24.00;25.40;;;;;;5094380;28;20024;-77
2022/03/22 08:25:37;;;;;;;10.02;4.95;;;24.10;25.40;;;;;;5083986;28;20021;-78
2022/03/22 08:28:05;;;;;;;18.40;7.80;;;24.00;25.20;;;;;;5074415;28;20100;-80
2022/03/22 08:30:32;;;;;;;14.55;3.90;;;23.70;25.20;;;;;;5073429;28;20040;-79
2022/03/22 08:32:59;;;;;;;12.05;4.32;;;23.60;25.40;;;;;;5073402;28;20020;-80
2022/03/22 08:35:27;;;;;;;11.05;3.67;;;23.90;25.20;;;;;;5073306;28;20033;-80
2022/03/22 08:37:53;;;;;;;;;;;24.00;25.10;;;;;;5073557;28;20020;-80
2022/03/22 08:40:20;;;;;;;20.20;8.45;;;24.10;26.10;;;;;;5055323;28;20443;-80
2022/03/22 08:42:47;;;;;;;7.13;3.75;;;24.10;25.10;;;;;;5083761;28;20035;-80
2022/03/22 08:45:15;;;;;;;10.50;3.53;;;24.30;24.90;;;;;;5093192;28;20055;-79
2022/03/22 08:47:42;;;;;;;9.38;3.83;;;24.60;25.30;;;;;;5093364;28;20052;-77
2022/03/22 08:50:09;;;;;;;;;;;24.60;24.70;;;;;;5093654;28;20028;-78
2022/03/22 08:52:36;;;;;;;7.72;4.55;;;24.80;25.50;;;;;;5074857;28;19954;-80
2022/03/22 08:55:02;;;;;;;;;;;24.90;24.60;;;;;;5073951;28;20089;-78
2022/03/22 08:57:28;;;;;;;6.20;3.03;;;24.90;25.40;;;;;;5073021;28;19968;-81
2022/03/22 08:59:54;;;;;;;8.48;3.10;;;25.40;24.50;;;;;;5072709;28;20071;-79
2022/03/22 09:02:19;;;;;;;5.07;2.45;;;26.20;24.30;;;;;;5073224;28;20035;-81
2022/03/22 09:07:29;;;;;;;6.88;2.65;;;26.40;23.60;;;;;;5078825;28;20136;-80
2022/03/22 09:09:55;;;;;;;9.90;2.88;;;26.10;23.50;;;;;;5055228;28;20056;-78
2022/03/22 09:12:21;;;;;;;11.95;3.05;;;25.60;23.70;;;;;;5072981;28;20040;-81
2022/03/22 09:14:47;;;;;;;8.65;5.68;;;25.30;23.80;;;;;;5073538;28;20468;-78
2022/03/22 09:17:13;;;;;;;7.35;2.90;;;25.50;23.90;;;;;;5056113;28;20107;-79
2022/03/22 09:19:39;;;;;;;4.73;2.57;;;25.90;23.70;;;;;;5075243;28;20086;-78
2022/03/22 09:22:07;;;;;;;12.13;3.40;;;26.00;23.70;;;;;;5073151;28;20028;-77
2022/03/22 09:24:34;;;;;;;8.75;3.25;;;26.30;23.50;;;;;;5072592;28;20033;-79
2022/03/22 09:27:01;;;;;;;8.48;3.45;;;26.60;23.50;;;;;;5074444;28;20017;-78
2022/03/22 09:29:27;;;;;;;7.25;2.72;;;26.30;22.90;;;;;;5072553;28;20025;-79
2022/03/22 09:31:53;;;;;;;5.45;2.28;;;25.90;23.30;;;;;;5054548;28;20054;-79
2022/03/22 09:34:19;;;;;;;9.25;2.20;;;26.10;22.70;;;;;;5072591;28;20052;-80
2022/03/22 09:36:45;;;;;;;7.65;2.20;;;25.70;22.20;;;;;;5072397;28;20024;-78
2022/03/22 09:39:10;;;;;;;8.27;2.20;;;25.10;21.90;;;;;;5071353;28;20036;-81
2022/03/22 09:41:38;;;;;;;6.72;1.98;;;24.50;22.10;;;;;;5054774;28;20078;-81
2022/03/22 09:44:04;;;;;;;7.68;2.40;;;24.60;21.80;;;;;;5072189;28;20052;-79
2022/03/22 09:46:32;;;;;;;6.40;2.28;;;24.90;21.60;;;;;;5072182;28;20649;-81
2022/03/22 09:48:59;;;;;;;3.97;2.28;;;24.80;21.40;;;;;;5079638;28;20016;-79
2022/03/22 09:54:14;;;;;;;4.25;1.55;;;24.80;21.10;;;;;;5092461;28;20070;-78
2022/03/22 09:56:41;;;;;;;6.47;2.13;;;24.50;21.30;;;;;;5092323;28;20027;-81
2022/03/22 09:59:07;;;;;;;11.38;1.95;;;24.50;21.40;;;;;;5074663;28;20043;-77
2022/03/22 10:01:33;;;;;;;8.45;2.53;;;24.50;21.40;;;;;;5071744;28;20024;-80
2022/03/22 10:04:02;;;;;;;2.95;1.40;;;24.50;21.40;;;;;;5053991;28;20432;-77
2022/03/22 10:06:32;;;;;;;6.90;2.40;;;24.10;21.60;;;;;;5090057;28;20032;-79
2022/03/22 10:08:58;;;;;;;10.13;1.63;;;23.60;21.60;;;;;;5092099;28;20154;-78
2022/03/22 10:11:38;;;;;;;5.93;1.83;;;23.30;21.50;;;;;;5091768;28;20024;-80
2022/03/22 10:14:05;;;;;;;3.58;1.75;;;23.00;21.90;;;;;;5080492;28;20151;-78
2022/03/22 10:16:31;;;;;;;4.75;1.63;;;22.60;22.00;;;;;;5071355;28;20021;-78
2022/03/22 10:18:58;;;;;;;5.00;2.55;;;22.80;22.20;;;;;;5053967;28;20131;-79
2022/03/22 10:21:24;;;;;;;5.07;1.92;;;23.40;22.10;;;;;;5072026;28;20083;-80
2022/03/22 10:23:55;;;;;;;4.53;1.83;;;23.40;21.70;;;;;;5071830;28;20060;-80
2022/03/22 10:26:31;;;;;;;6.93;1.30;;;22.70;21.60;;;;;;5071712;28;20466;-79
2022/03/22 10:28:57;;;;;;;5.63;1.60;;;21.10;22.00;;;;;;5053626;28;20496;-79
2022/03/22 10:31:34;;;;;;;7.18;2.00;;;19.50;23.00;;;;;;5053626;28;20032;-79
2022/03/22 10:34:01;;;;;;;3.83;1.58;;;18.20;23.90;;;;;;5053990;28;20404;-80
2022/03/22 10:36:27;;;;;;;5.93;2.13;;;17.10;24.40;;;;;;5071687;28;20024;-77
2022/03/22 10:38:54;;;;;;;3.75;1.58;;;16.30;25.20;;;;;;5074314;28;20033;-79
2022/03/22 10:41:24;;;;;;;;;;;15.70;25.70;;;;;;5072898;28;20013;-79
2022/03/22 10:44:04;;;;;;;12.98;2.60;;;15.30;25.90;;;;;;5072133;28;20320;-78
2022/03/22 10:46:30;;;;;;;5.47;1.85;;;14.70;26.70;;;;;;5054059;28;20025;-80
2022/03/22 10:49:22;;;;;;;3.42;1.83;;;14.40;27.10;;;;;;5090052;28;20422;-79
2022/03/22 10:51:50;;;;;;;3.80;1.70;;;14.10;27.30;;;;;;5051872;28;20040;-80
2022/03/22 10:54:18;;;;;;;6.03;2.15;;;13.90;27.50;;;;;;5057258;28;20111;-79
2022/03/22 10:56:48;;;;;;;6.75;2.42;;;13.70;27.70;;;;;;5057503;28;20060;-77
2022/03/22 10:59:16;;;;;;;11.68;2.08;;;13.60;28.00;;;;;;5075225;28;20112;-77
2022/03/22 11:01:44;;;;;;;6.38;1.60;;;13.60;27.90;;;;;;5075176;28;20013;-80
2022/03/22 11:04:10;;;;;;;;;;;13.60;28.10;;;;;;5074622;28;20039;-79
2022/03/22 11:06:41;;;;;;;6.30;2.20;;;13.50;27.90;;;;;;5095632;28;19974;-78
2022/03/22 11:09:08;;;;;;;3.40;1.77;;;13.40;29.10;;;;;;5096439;28;20457;-79
2022/03/22 11:11:36;;;;;;;4.40;1.92;;;13.40;28.30;;;;;;5095468;28;20043;-79
2022/03/22 11:14:03;;;;;;;4.20;2.08;;;13.30;28.30;;;;;;5095189;28;20024;-79
2022/03/22 11:16:31;;;;;;;6.07;1.73;;;13.20;28.40;;;;;;5094960;28;20036;-78
2022/03/22 11:19:02;;;;;;;3.60;1.65;;;13.20;28.50;;;;;;5076847;28;20039;-78
2022/03/22 11:21:28;;;;;;;4.47;2.08;;;13.20;28.60;;;;;;5095339;28;20024;-80
2022/03/22 11:24:11;;;;;;;6.75;1.60;;;13.30;28.50;;;;;;5077127;28;20131;-78
2022/03/22 11:26:42;;;;;;;5.70;1.63;;;13.20;28.00;;;;;;5076091;28;20016;-77
2022/03/22 11:29:10;;;;;;;5.82;1.90;;;13.10;28.30;;;;;;5057446;28;20028;-79
2022/03/22 11:31:37;;;;;;;5.78;1.90;;;13.10;28.50;;;;;;5056784;28;20025;-80
2022/03/22 11:34:11;;;;;;;3.83;1.67;;;13.00;28.70;;;;;;5075215;28;20028;-78
2022/03/22 11:36:58;;;;;;;7.57;2.13;;;13.10;28.70;;;;;;5074821;28;20027;-77
2022/03/22 11:42:19;;;;;;;2.95;1.52;;;13.10;28.90;;;;;;5095075;28;20034;-78
2022/03/22 11:44:57;;;;;;;5.18;2.00;;;13.10;28.80;;;;;;5095329;28;20111;-78
2022/03/22 11:47:22;;;;;;;5.65;1.85;;;13.10;29.00;;;;;;5094537;28;20099;-77
2022/03/22 11:49:49;;;;;;;6.78;1.42;;;13.10;29.20;;;;;;5094383;28;20444;-79
2022/03/22 11:52:15;;;;;;;5.93;2.17;;;13.10;29.20;;;;;;5094650;28;20020;-80
2022/03/22 11:54:54;;;;;;;9.30;2.42;;;13.10;29.30;;;;;;5094237;28;20020;-80
2022/03/22 11:57:20;;;;;;;4.38;1.70;;;13.10;28.80;;;;;;5084490;28;20389;-79
2022/03/22 11:59:47;;;;;;;4.18;1.83;;;13.10;28.70;;;;;;5056313;28;20082;-80
2022/03/22 12:02:17;;;;;;;6.70;2.42;;;13.10;28.70;;;;;;5073349;28;20098;-78
2022/03/22 12:04:55;;;;;;;7.70;2.33;;;13.10;28.90;;;;;;5077634;28;20473;-80
2022/03/22 12:07:27;;;;;;;6.78;1.85;;;13.10;29.00;;;;;;5094036;28;20047;-79
2022/03/22 12:10:02;;;;;;;6.35;2.20;;;13.10;29.20;;;;;;5094134;28;20023;-78
2022/03/22 12:12:27;;;;;;;4.22;2.00;;;13.10;29.40;;;;;;5093944;28;20444;-78
2022/03/22 12:14:55;;;;;;;4.85;1.90;;;13.10;29.40;;;;;;5093867;28;20048;-78
2022/03/22 12:17:21;;;;;;;5.43;1.85;;;13.10;29.30;;;;;;5077754;28;20123;-79
2022/03/22 12:19:46;;;;;;;3.33;1.20;;;13.20;29.00;;;;;;5055986;28;20123;-78
2022/03/22 12:22:13;;;;;;;3.33;1.45;;;13.20;28.70;;;;;;5073933;28;20150;-79
2022/03/22 12:24:39;;;;;;;5.78;1.67;;;13.20;28.60;;;;;;5074042;28;20039;-78
2022/03/22 12:27:10;;;;;;;8.23;2.08;;;13.20;28.60;;;;;;5073583;28;20103;-78
2022/03/22 12:29:43;;;;;;;4.10;2.08;;;13.40;28.50;;;;;;5073645;28;20462;-77
2022/03/22 12:32:17;;;;;;;6.53;1.90;;;13.60;28.30;;;;;;5073684;28;20047;-79
2022/03/22 12:34:45;;;;;;;3.70;1.90;;;13.70;28.40;;;;;;5073384;28;20024;-78
2022/03/22 12:37:12;;;;;;;8.00;1.80;;;13.90;28.20;;;;;;5073559;28;20508;-78
2022/03/22 12:39:41;;;;;;;;;;;14.10;27.90;;;;;;5073612;28;20072;-79
2022/03/22 12:42:07;;;;;;;6.28;1.50;;;14.00;27.80;;;;;;5073593;28;19904;-79
2022/03/22 12:44:34;;;;;;;3.77;1.40;;;13.80;28.00;;;;;;5076943;28;20012;-78
2022/03/22 12:47:01;;;;;;;2.22;1.33;;;13.60;28.30;;;;;;5093883;28;20024;-79
2022/03/22 12:49:27;;;;;;;5.43;1.80;;;13.40;28.30;;;;;;5080751;28;20028;-78
2022/03/22 12:51:54;;;;;;;5.95;2.45;;;13.30;28.50;;;;;;5056015;28;20482;-81
2022/03/22 12:54:21;;;;;;;3.05;1.20;;;13.30;28.60;;;;;;5073576;28;20028;-81
2022/03/22 12:56:48;;;;;;;6.05;1.83;;;13.20;28.70;;;;;;5073071;28;20127;-80
2022/03/22 12:59:21;;;;;;;11.25;1.88;;;13.20;28.60;;;;;;5072891;28;20055;-80
2022/03/22 13:01:58;;;;;;;2.78;0.90;;;13.20;28.60;;;;;;5073015;28;20095;-78
2022/03/22 13:04:31;;;;;;;4.70;1.35;;;13.30;28.40;;;;;;5076853;28;20050;-80
2022/03/22 13:07:01;;;;;;;4.03;1.65;;;13.20;28.30;;;;;;5093633;28;20099;-79
2022/03/22 13:12:15;;;;;;;3.92;1.92;;;13.00;28.50;;;;;;5093336;28;20038;-76
2022/03/22 13:15:08;;;;;;;4.22;1.80;;;13.00;28.50;;;;;;5092267;28;20444;-77
2022/03/22 13:17:48;;;;;;;6.47;1.70;;;13.00;28.50;;;;;;5091956;28;20385;-77
2022/03/22 13:20:21;;;;;;;3.50;1.40;;;12.90;28.50;;;;;;5093123;28;20040;-79
2022/03/22 13:23:08;;;;;;;9.82;1.60;;;12.90;28.50;;;;;;5093395;28;20024;-78
2022/03/22 13:25:39;;;;;;;2.67;1.30;;;12.80;28.70;;;;;;5092722;28;20432;-79